sensor_id;sensor_type;location;lat;lon;timestamp;P1;durP1;ratioP1;P2;durP2;ratioP2
10283;SDS011;5187;52.378;9.018;2022-08-19T00:01:24;6.45;;;5.43;;
10283;SDS011;5187;52.378;9.018;2022-08-19T00:03:56;6.13;;;5.32;;
10283;SDS011;5187;52.378;9.018;2022-08-19T00:06:24;8.15;;;5.30;;
10283;SDS011;5187;52.378;9.018;2022-08-19T00:08:53;8.48;;;5.47;;
10283;SDS011;5187;52.378;9.018;2022-08-19T00:11:23;6.28;;;4.95;;
10283;SDS011;5187;52.378;9.018;2022-08-19T00:13:53;8.05;;;5.50;;
10283;SDS011;5187;52.378;9.018;2022-08-19T00:16:23;6.35;;;4.40;;
10283;SDS011;5187;52.378;9.018;2022-08-19T00:18:52;6.07;;;4.63;;
10283;SDS011;5187;52.378;9.018;2022-08-19T00:21:21;5.72;;;4.43;;
10283;SDS011;5187;52.378;9.018;2022-08-19T00:23:50;6.40;;;4.82;;
10283;SDS011;5187;52.378;9.018;2022-08-19T00:26:18;5.07;;;4.50;;
10283;SDS011;5187;52.378;9.018;2022-08-19T00:28:49;5.35;;;4.82;;
10283;SDS011;5187;52.378;9.018;2022-08-19T00:31:17;5.32;;;4.57;;
10283;SDS011;5187;52.378;9.018;2022-08-19T00:33:45;4.72;;;4.35;;
10283;SDS011;5187;52.378;9.018;2022-08-19T00:36:16;5.32;;;4.85;;
10283;SDS011;5187;52.378;9.018;2022-08-19T00:38:45;5.38;;;4.60;;
10283;SDS011;5187;52.378;9.018;2022-08-19T00:41:14;6.50;;;4.90;;
10283;SDS011;5187;52.378;9.018;2022-08-19T00:43:49;5.28;;;4.45;;
10283;SDS011;5187;52.378;9.018;2022-08-19T00:46:25;4.80;;;4.40;;
10283;SDS011;5187;52.378;9.018;2022-08-19T00:48:54;5.82;;;4.90;;
10283;SDS011;5187;52.378;9.018;2022-08-19T00:51:32;6.63;;;5.25;;
10283;SDS011;5187;52.378;9.018;2022-08-19T00:54:04;6.68;;;5.70;;
10283;SDS011;5187;52.378;9.018;2022-08-19T00:56:33;8.00;;;5.97;;
10283;SDS011;5187;52.378;9.018;2022-08-19T00:59:01;8.45;;;5.88;;
10283;SDS011;5187;52.378;9.018;2022-08-19T01:01:36;8.20;;;5.90;;
10283;SDS011;5187;52.378;9.018;2022-08-19T01:04:05;10.90;;;6.63;;
10283;SDS011;5187;52.378;9.018;2022-08-19T01:06:33;9.18;;;7.00;;
10283;SDS011;5187;52.378;9.018;2022-08-19T01:09:03;8.77;;;7.15;;
10283;SDS011;5187;52.378;9.018;2022-08-19T01:11:33;10.85;;;6.72;;
10283;SDS011;5187;52.378;9.018;2022-08-19T01:14:02;10.70;;;7.70;;
10283;SDS011;5187;52.378;9.018;2022-08-19T01:16:31;9.32;;;8.27;;
10283;SDS011;5187;52.378;9.018;2022-08-19T01:19:02;11.13;;;9.18;;
10283;SDS011;5187;52.378;9.018;2022-08-19T01:21:31;10.73;;;9.63;;
10283;SDS011;5187;52.378;9.018;2022-08-19T01:24:02;12.13;;;10.57;;
10283;SDS011;5187;52.378;9.018;2022-08-19T01:26:31;12.23;;;10.98;;
10283;SDS011;5187;52.378;9.018;2022-08-19T01:28:59;12.95;;;10.60;;
10283;SDS011;5187;52.378;9.018;2022-08-19T01:31:30;13.05;;;11.43;;
10283;SDS011;5187;52.378;9.018;2022-08-19T01:33:59;12.25;;;11.15;;
10283;SDS011;5187;52.378;9.018;2022-08-19T01:36:28;12.32;;;11.02;;
10283;SDS011;5187;52.378;9.018;2022-08-19T01:38:58;12.95;;;11.75;;
10283;SDS011;5187;52.378;9.018;2022-08-19T01:41:28;13.15;;;11.70;;
10283;SDS011;5187;52.378;9.018;2022-08-19T01:43:56;14.50;;;11.40;;
10283;SDS011;5187;52.378;9.018;2022-08-19T01:46:44;12.93;;;11.50;;
10283;SDS011;5187;52.378;9.018;2022-08-19T01:49:14;11.60;;;10.60;;
10283;SDS011;5187;52.378;9.018;2022-08-19T01:51:43;12.82;;;11.48;;
10283;SDS011;5187;52.378;9.018;2022-08-19T01:54:12;14.23;;;11.65;;
10283;SDS011;5187;52.378;9.018;2022-08-19T01:56:55;14.27;;;11.85;;
10283;SDS011;5187;52.378;9.018;2022-08-19T01:59:23;12.75;;;11.50;;
10283;SDS011;5187;52.378;9.018;2022-08-19T02:01:52;14.27;;;11.52;;
10283;SDS011;5187;52.378;9.018;2022-08-19T02:04:21;13.25;;;11.95;;
10283;SDS011;5187;52.378;9.018;2022-08-19T02:06:51;14.07;;;12.48;;
10283;SDS011;5187;52.378;9.018;2022-08-19T02:09:20;13.43;;;12.10;;
10283;SDS011;5187;52.378;9.018;2022-08-19T02:11:48;14.50;;;12.48;;
10283;SDS011;5187;52.378;9.018;2022-08-19T02:14:18;15.60;;;13.98;;
10283;SDS011;5187;52.378;9.018;2022-08-19T02:16:46;15.70;;;13.13;;
10283;SDS011;5187;52.378;9.018;2022-08-19T02:19:15;14.43;;;12.98;;
10283;SDS011;5187;52.378;9.018;2022-08-19T02:21:43;14.07;;;12.70;;
10283;SDS011;5187;52.378;9.018;2022-08-19T02:24:12;15.10;;;13.57;;
10283;SDS011;5187;52.378;9.018;2022-08-19T02:26:40;15.73;;;14.18;;
10283;SDS011;5187;52.378;9.018;2022-08-19T02:29:08;15.70;;;13.43;;
10283;SDS011;5187;52.378;9.018;2022-08-19T02:31:38;15.65;;;13.55;;
10283;SDS011;5187;52.378;9.018;2022-08-19T02:34:06;17.45;;;14.93;;
10283;SDS011;5187;52.378;9.018;2022-08-19T02:36:35;15.48;;;12.85;;
10283;SDS011;5187;52.378;9.018;2022-08-19T02:39:07;15.35;;;12.90;;
10283;SDS011;5187;52.378;9.018;2022-08-19T02:41:35;17.35;;;14.68;;
10283;SDS011;5187;52.378;9.018;2022-08-19T02:44:03;15.93;;;14.15;;
10283;SDS011;5187;52.378;9.018;2022-08-19T02:46:54;17.98;;;14.63;;
10283;SDS011;5187;52.378;9.018;2022-08-19T02:49:22;16.27;;;14.38;;
10283;SDS011;5187;52.378;9.018;2022-08-19T02:51:51;17.45;;;15.35;;
10283;SDS011;5187;52.378;9.018;2022-08-19T02:54:20;18.90;;;16.98;;
10283;SDS011;5187;52.378;9.018;2022-08-19T02:56:49;17.73;;;15.95;;
10283;SDS011;5187;52.378;9.018;2022-08-19T02:59:17;18.80;;;16.55;;
10283;SDS011;5187;52.378;9.018;2022-08-19T03:01:48;19.42;;;17.45;;
10283;SDS011;5187;52.378;9.018;2022-08-19T03:04:18;19.10;;;16.95;;
10283;SDS011;5187;52.378;9.018;2022-08-19T03:06:46;19.15;;;17.13;;
10283;SDS011;5187;52.378;9.018;2022-08-19T03:09:15;18.25;;;16.38;;
10283;SDS011;5187;52.378;9.018;2022-08-19T03:11:44;19.60;;;17.02;;
10283;SDS011;5187;52.378;9.018;2022-08-19T03:14:15;19.10;;;17.00;;
10283;SDS011;5187;52.378;9.018;2022-08-19T03:16:45;21.10;;;17.80;;
10283;SDS011;5187;52.378;9.018;2022-08-19T03:19:15;22.60;;;18.60;;
10283;SDS011;5187;52.378;9.018;2022-08-19T03:21:45;21.58;;;18.58;;
10283;SDS011;5187;52.378;9.018;2022-08-19T03:24:14;22.38;;;19.88;;
10283;SDS011;5187;52.378;9.018;2022-08-19T03:26:44;25.55;;;19.60;;
10283;SDS011;5187;52.378;9.018;2022-08-19T03:29:13;22.83;;;19.57;;
10283;SDS011;5187;52.378;9.018;2022-08-19T03:31:56;22.83;;;19.27;;
10283;SDS011;5187;52.378;9.018;2022-08-19T03:34:28;24.40;;;19.30;;
10283;SDS011;5187;52.378;9.018;2022-08-19T03:36:59;19.88;;;17.73;;
10283;SDS011;5187;52.378;9.018;2022-08-19T03:39:30;22.83;;;19.93;;
10283;SDS011;5187;52.378;9.018;2022-08-19T03:41:59;20.77;;;18.58;;
10283;SDS011;5187;52.378;9.018;2022-08-19T03:44:48;22.17;;;18.13;;
10283;SDS011;5187;52.378;9.018;2022-08-19T03:47:17;22.57;;;19.90;;
10283;SDS011;5187;52.378;9.018;2022-08-19T03:49:45;23.03;;;18.57;;
10283;SDS011;5187;52.378;9.018;2022-08-19T03:52:15;23.17;;;18.75;;
10283;SDS011;5187;52.378;9.018;2022-08-19T03:54:43;22.70;;;19.20;;
10283;SDS011;5187;52.378;9.018;2022-08-19T03:57:12;21.77;;;18.80;;
10283;SDS011;5187;52.378;9.018;2022-08-19T03:59:40;21.97;;;19.63;;
10283;SDS011;5187;52.378;9.018;2022-08-19T04:02:11;21.13;;;18.67;;
10283;SDS011;5187;52.378;9.018;2022-08-19T04:04:41;22.47;;;18.97;;
10283;SDS011;5187;52.378;9.018;2022-08-19T04:07:10;22.27;;;19.87;;
10283;SDS011;5187;52.378;9.018;2022-08-19T04:09:43;22.17;;;19.37;;
10283;SDS011;5187;52.378;9.018;2022-08-19T04:12:12;25.52;;;19.85;;
10283;SDS011;5187;52.378;9.018;2022-08-19T04:14:41;20.60;;;17.80;;
10283;SDS011;5187;52.378;9.018;2022-08-19T04:17:09;20.17;;;18.07;;
10283;SDS011;5187;52.378;9.018;2022-08-19T04:19:39;20.90;;;18.70;;
10283;SDS011;5187;52.378;9.018;2022-08-19T04:22:09;21.10;;;18.53;;
10283;SDS011;5187;52.378;9.018;2022-08-19T04:24:38;23.40;;;20.90;;
10283;SDS011;5187;52.378;9.018;2022-08-19T04:27:07;25.80;;;20.38;;
10283;SDS011;5187;52.378;9.018;2022-08-19T04:29:36;23.50;;;20.83;;
10283;SDS011;5187;52.378;9.018;2022-08-19T04:32:05;26.83;;;21.33;;
10283;SDS011;5187;52.378;9.018;2022-08-19T04:34:35;24.37;;;21.67;;
10283;SDS011;5187;52.378;9.018;2022-08-19T04:37:23;25.83;;;20.83;;
10283;SDS011;5187;52.378;9.018;2022-08-19T04:40:01;25.53;;;21.13;;
10283;SDS011;5187;52.378;9.018;2022-08-19T04:42:48;27.40;;;21.17;;
10283;SDS011;5187;52.378;9.018;2022-08-19T04:45:17;27.17;;;20.77;;
10283;SDS011;5187;52.378;9.018;2022-08-19T04:47:48;24.07;;;21.37;;
10283;SDS011;5187;52.378;9.018;2022-08-19T04:50:39;24.97;;;20.93;;
10283;SDS011;5187;52.378;9.018;2022-08-19T04:53:08;26.93;;;21.40;;
10283;SDS011;5187;52.378;9.018;2022-08-19T04:55:40;24.77;;;20.97;;
10283;SDS011;5187;52.378;9.018;2022-08-19T04:58:10;26.93;;;20.63;;
10283;SDS011;5187;52.378;9.018;2022-08-19T05:00:38;27.73;;;20.57;;
10283;SDS011;5187;52.378;9.018;2022-08-19T05:03:07;23.93;;;20.33;;
10283;SDS011;5187;52.378;9.018;2022-08-19T05:05:38;26.10;;;20.33;;
10283;SDS011;5187;52.378;9.018;2022-08-19T05:08:10;25.77;;;20.43;;
10283;SDS011;5187;52.378;9.018;2022-08-19T05:10:40;22.67;;;19.63;;
10283;SDS011;5187;52.378;9.018;2022-08-19T05:13:10;26.47;;;20.17;;
10283;SDS011;5187;52.378;9.018;2022-08-19T05:15:39;27.30;;;21.30;;
10283;SDS011;5187;52.378;9.018;2022-08-19T05:18:07;28.33;;;21.77;;
10283;SDS011;5187;52.378;9.018;2022-08-19T05:20:54;27.23;;;20.63;;
10283;SDS011;5187;52.378;9.018;2022-08-19T05:23:40;25.53;;;19.83;;
10283;SDS011;5187;52.378;9.018;2022-08-19T05:26:09;28.30;;;21.67;;
10283;SDS011;5187;52.378;9.018;2022-08-19T05:28:39;28.00;;;21.88;;
10283;SDS011;5187;52.378;9.018;2022-08-19T05:31:07;31.60;;;21.50;;
10283;SDS011;5187;52.378;9.018;2022-08-19T05:33:36;29.97;;;21.07;;
10283;SDS011;5187;52.378;9.018;2022-08-19T05:36:06;32.10;;;23.53;;
10283;SDS011;5187;52.378;9.018;2022-08-19T05:38:34;35.07;;;21.87;;
10283;SDS011;5187;52.378;9.018;2022-08-19T05:41:06;31.27;;;21.93;;
10283;SDS011;5187;52.378;9.018;2022-08-19T05:43:34;32.23;;;21.57;;
10283;SDS011;5187;52.378;9.018;2022-08-19T05:46:05;29.20;;;22.40;;
10283;SDS011;5187;52.378;9.018;2022-08-19T05:48:34;26.27;;;20.53;;
10283;SDS011;5187;52.378;9.018;2022-08-19T05:51:03;26.20;;;21.73;;
10283;SDS011;5187;52.378;9.018;2022-08-19T05:53:33;23.98;;;20.67;;
10283;SDS011;5187;52.378;9.018;2022-08-19T05:56:03;24.42;;;20.85;;
10283;SDS011;5187;52.378;9.018;2022-08-19T05:58:32;26.30;;;21.48;;
10283;SDS011;5187;52.378;9.018;2022-08-19T06:01:00;26.70;;;22.35;;
10283;SDS011;5187;52.378;9.018;2022-08-19T06:03:33;27.48;;;22.38;;
10283;SDS011;5187;52.378;9.018;2022-08-19T06:06:02;22.67;;;19.90;;
10283;SDS011;5187;52.378;9.018;2022-08-19T06:08:31;24.38;;;20.50;;
10283;SDS011;5187;52.378;9.018;2022-08-19T06:13:52;24.38;;;19.85;;
10283;SDS011;5187;52.378;9.018;2022-08-19T06:16:25;24.65;;;20.08;;
10283;SDS011;5187;52.378;9.018;2022-08-19T06:18:56;24.40;;;20.65;;
10283;SDS011;5187;52.378;9.018;2022-08-19T06:21:25;24.55;;;20.17;;
10283;SDS011;5187;52.378;9.018;2022-08-19T06:23:54;22.20;;;19.33;;
10283;SDS011;5187;52.378;9.018;2022-08-19T06:26:23;22.33;;;20.00;;
10283;SDS011;5187;52.378;9.018;2022-08-19T06:28:52;21.73;;;19.45;;
10283;SDS011;5187;52.378;9.018;2022-08-19T06:31:22;21.45;;;19.05;;
10283;SDS011;5187;52.378;9.018;2022-08-19T06:33:52;21.05;;;18.85;;
10283;SDS011;5187;52.378;9.018;2022-08-19T06:36:23;20.35;;;17.98;;
10283;SDS011;5187;52.378;9.018;2022-08-19T06:38:53;21.42;;;18.65;;
10283;SDS011;5187;52.378;9.018;2022-08-19T06:41:23;18.73;;;16.73;;
10283;SDS011;5187;52.378;9.018;2022-08-19T06:43:52;19.35;;;17.33;;
10283;SDS011;5187;52.378;9.018;2022-08-19T06:46:22;20.08;;;17.17;;
10283;SDS011;5187;52.378;9.018;2022-08-19T06:48:51;20.80;;;18.73;;
10283;SDS011;5187;52.378;9.018;2022-08-19T06:51:22;23.13;;;20.73;;
10283;SDS011;5187;52.378;9.018;2022-08-19T06:53:55;24.55;;;21.38;;
10283;SDS011;5187;52.378;9.018;2022-08-19T06:56:25;22.67;;;20.17;;
10283;SDS011;5187;52.378;9.018;2022-08-19T06:58:57;23.77;;;21.20;;
10283;SDS011;5187;52.378;9.018;2022-08-19T07:01:26;23.58;;;20.45;;
10283;SDS011;5187;52.378;9.018;2022-08-19T07:03:55;23.92;;;20.73;;
10283;SDS011;5187;52.378;9.018;2022-08-19T07:06:25;21.67;;;19.38;;
10283;SDS011;5187;52.378;9.018;2022-08-19T07:09:11;22.33;;;19.88;;
10283;SDS011;5187;52.378;9.018;2022-08-19T07:11:44;22.25;;;18.90;;
10283;SDS011;5187;52.378;9.018;2022-08-19T07:14:13;21.67;;;19.38;;
10283;SDS011;5187;52.378;9.018;2022-08-19T07:16:44;21.27;;;18.92;;
10283;SDS011;5187;52.378;9.018;2022-08-19T07:19:13;20.05;;;18.05;;
10283;SDS011;5187;52.378;9.018;2022-08-19T07:21:46;19.40;;;17.30;;
10283;SDS011;5187;52.378;9.018;2022-08-19T07:24:16;20.27;;;18.08;;
10283;SDS011;5187;52.378;9.018;2022-08-19T07:26:44;19.42;;;16.85;;
10283;SDS011;5187;52.378;9.018;2022-08-19T07:29:16;18.65;;;16.73;;
10283;SDS011;5187;52.378;9.018;2022-08-19T07:31:49;18.45;;;16.10;;
10283;SDS011;5187;52.378;9.018;2022-08-19T07:34:19;17.13;;;15.25;;
10283;SDS011;5187;52.378;9.018;2022-08-19T07:36:49;18.27;;;16.33;;
10283;SDS011;5187;52.378;9.018;2022-08-19T07:39:19;16.50;;;14.77;;
10283;SDS011;5187;52.378;9.018;2022-08-19T07:41:48;18.83;;;15.20;;
10283;SDS011;5187;52.378;9.018;2022-08-19T07:44:17;16.30;;;14.43;;
10283;SDS011;5187;52.378;9.018;2022-08-19T07:46:48;16.75;;;14.95;;
10283;SDS011;5187;52.378;9.018;2022-08-19T07:49:19;16.13;;;14.55;;
10283;SDS011;5187;52.378;9.018;2022-08-19T07:51:50;18.33;;;15.02;;
10283;SDS011;5187;52.378;9.018;2022-08-19T07:54:20;16.58;;;14.70;;
10283;SDS011;5187;52.378;9.018;2022-08-19T07:56:49;17.20;;;14.50;;
10283;SDS011;5187;52.378;9.018;2022-08-19T07:59:19;15.98;;;13.95;;
10283;SDS011;5187;52.378;9.018;2022-08-19T08:01:47;15.02;;;13.43;;
10283;SDS011;5187;52.378;9.018;2022-08-19T08:04:16;17.60;;;15.23;;
10283;SDS011;5187;52.378;9.018;2022-08-19T08:07:04;18.23;;;14.48;;
10283;SDS011;5187;52.378;9.018;2022-08-19T08:09:57;15.10;;;13.60;;
10283;SDS011;5187;52.378;9.018;2022-08-19T08:12:30;14.80;;;13.23;;
10283;SDS011;5187;52.378;9.018;2022-08-19T08:15:01;16.08;;;13.98;;
10283;SDS011;5187;52.378;9.018;2022-08-19T08:17:34;16.50;;;13.02;;
10283;SDS011;5187;52.378;9.018;2022-08-19T08:20:15;14.02;;;12.63;;
10283;SDS011;5187;52.378;9.018;2022-08-19T08:22:45;15.23;;;12.85;;
10283;SDS011;5187;52.378;9.018;2022-08-19T08:25:32;12.95;;;11.32;;
10283;SDS011;5187;52.378;9.018;2022-08-19T08:28:02;15.90;;;13.10;;
10283;SDS011;5187;52.378;9.018;2022-08-19T08:30:30;12.95;;;11.18;;
10283;SDS011;5187;52.378;9.018;2022-08-19T08:33:02;10.93;;;9.73;;
10283;SDS011;5187;52.378;9.018;2022-08-19T08:35:30;11.18;;;10.02;;
10283;SDS011;5187;52.378;9.018;2022-08-19T08:38:01;10.43;;;9.38;;
10283;SDS011;5187;52.378;9.018;2022-08-19T08:40:38;11.60;;;10.48;;
10283;SDS011;5187;52.378;9.018;2022-08-19T08:43:07;12.55;;;10.73;;
10283;SDS011;5187;52.378;9.018;2022-08-19T08:45:38;11.95;;;10.30;;
10283;SDS011;5187;52.378;9.018;2022-08-19T08:48:12;10.80;;;9.65;;
10283;SDS011;5187;52.378;9.018;2022-08-19T08:50:49;10.68;;;9.50;;
10283;SDS011;5187;52.378;9.018;2022-08-19T08:53:20;13.10;;;10.23;;
10283;SDS011;5187;52.378;9.018;2022-08-19T08:55:57;10.90;;;9.80;;
10283;SDS011;5187;52.378;9.018;2022-08-19T08:58:29;8.95;;;8.05;;
10283;SDS011;5187;52.378;9.018;2022-08-19T09:00:59;8.52;;;7.70;;
10283;SDS011;5187;52.378;9.018;2022-08-19T09:03:27;9.50;;;6.55;;
10283;SDS011;5187;52.378;9.018;2022-08-19T09:05:59;6.40;;;5.80;;
10283;SDS011;5187;52.378;9.018;2022-08-19T09:08:33;4.90;;;4.43;;
10283;SDS011;5187;52.378;9.018;2022-08-19T09:11:06;5.32;;;4.82;;
10283;SDS011;5187;52.378;9.018;2022-08-19T09:13:38;4.95;;;4.55;;
10283;SDS011;5187;52.378;9.018;2022-08-19T09:16:10;5.85;;;4.68;;
10283;SDS011;5187;52.378;9.018;2022-08-19T09:18:41;5.65;;;4.35;;
10283;SDS011;5187;52.378;9.018;2022-08-19T09:21:09;7.50;;;4.97;;
10283;SDS011;5187;52.378;9.018;2022-08-19T09:23:39;5.30;;;4.30;;
10283;SDS011;5187;52.378;9.018;2022-08-19T09:26:11;6.60;;;4.85;;
10283;SDS011;5187;52.378;9.018;2022-08-19T09:28:42;5.57;;;5.00;;
10283;SDS011;5187;52.378;9.018;2022-08-19T09:31:23;5.85;;;5.20;;
10283;SDS011;5187;52.378;9.018;2022-08-19T09:33:52;6.60;;;4.80;;
10283;SDS011;5187;52.378;9.018;2022-08-19T09:36:24;6.32;;;5.22;;
10283;SDS011;5187;52.378;9.018;2022-08-19T09:39:02;6.78;;;5.60;;
10283;SDS011;5187;52.378;9.018;2022-08-19T09:41:41;6.65;;;5.40;;
10283;SDS011;5187;52.378;9.018;2022-08-19T09:44:14;5.82;;;5.32;;
10283;SDS011;5187;52.378;9.018;2022-08-19T09:46:44;5.45;;;4.60;;
10283;SDS011;5187;52.378;9.018;2022-08-19T09:49:14;4.82;;;3.88;;
10283;SDS011;5187;52.378;9.018;2022-08-19T09:51:44;5.30;;;4.43;;
10283;SDS011;5187;52.378;9.018;2022-08-19T09:54:18;5.72;;;4.50;;
10283;SDS011;5187;52.378;9.018;2022-08-19T09:56:50;6.18;;;4.88;;
10283;SDS011;5187;52.378;9.018;2022-08-19T09:59:18;4.72;;;4.28;;
10283;SDS011;5187;52.378;9.018;2022-08-19T10:01:47;5.10;;;4.40;;
10283;SDS011;5187;52.378;9.018;2022-08-19T10:04:15;4.93;;;4.07;;
10283;SDS011;5187;52.378;9.018;2022-08-19T10:06:47;5.80;;;4.25;;
10283;SDS011;5187;52.378;9.018;2022-08-19T10:09:20;6.18;;;4.65;;
10283;SDS011;5187;52.378;9.018;2022-08-19T10:11:59;5.18;;;4.03;;
10283;SDS011;5187;52.378;9.018;2022-08-19T10:14:28;4.97;;;3.50;;
10283;SDS011;5187;52.378;9.018;2022-08-19T10:16:57;5.65;;;3.40;;
10283;SDS011;5187;52.378;9.018;2022-08-19T10:19:42;4.50;;;3.20;;
10283;SDS011;5187;52.378;9.018;2022-08-19T10:22:22;4.97;;;3.10;;
10283;SDS011;5187;52.378;9.018;2022-08-19T10:24:53;4.63;;;3.85;;
10283;SDS011;5187;52.378;9.018;2022-08-19T10:27:22;3.42;;;3.13;;
10283;SDS011;5187;52.378;9.018;2022-08-19T10:29:51;4.53;;;3.03;;
10283;SDS011;5187;52.378;9.018;2022-08-19T10:32:20;4.00;;;3.00;;
10283;SDS011;5187;52.378;9.018;2022-08-19T10:34:59;2.60;;;2.00;;
10283;SDS011;5187;52.378;9.018;2022-08-19T10:37:31;2.90;;;2.58;;
10283;SDS011;5187;52.378;9.018;2022-08-19T10:40:02;3.78;;;2.67;;
10283;SDS011;5187;52.378;9.018;2022-08-19T10:42:30;5.47;;;3.05;;
10283;SDS011;5187;52.378;9.018;2022-08-19T10:44:59;2.85;;;2.63;;
10283;SDS011;5187;52.378;9.018;2022-08-19T10:47:30;3.72;;;2.67;;
10283;SDS011;5187;52.378;9.018;2022-08-19T10:49:58;2.70;;;2.50;;
10283;SDS011;5187;52.378;9.018;2022-08-19T10:52:45;3.15;;;2.20;;
10283;SDS011;5187;52.378;9.018;2022-08-19T10:55:18;2.75;;;1.90;;
10283;SDS011;5187;52.378;9.018;2022-08-19T10:58:09;2.40;;;2.20;;
10283;SDS011;5187;52.378;9.018;2022-08-19T11:00:38;1.70;;;1.60;;
10283;SDS011;5187;52.378;9.018;2022-08-19T11:03:08;3.03;;;1.80;;
10283;SDS011;5187;52.378;9.018;2022-08-19T11:05:36;2.80;;;1.35;;
10283;SDS011;5187;52.378;9.018;2022-08-19T11:08:05;1.52;;;1.30;;
10283;SDS011;5187;52.378;9.018;2022-08-19T11:10:50;1.38;;;1.17;;
10283;SDS011;5187;52.378;9.018;2022-08-19T11:13:20;1.83;;;1.23;;
10283;SDS011;5187;52.378;9.018;2022-08-19T11:15:55;2.80;;;1.20;;
10283;SDS011;5187;52.378;9.018;2022-08-19T11:18:28;1.58;;;1.20;;
10283;SDS011;5187;52.378;9.018;2022-08-19T11:21:04;1.20;;;1.10;;
10283;SDS011;5187;52.378;9.018;2022-08-19T11:23:33;2.28;;;1.20;;
10283;SDS011;5187;52.378;9.018;2022-08-19T11:26:03;1.48;;;1.20;;
10283;SDS011;5187;52.378;9.018;2022-08-19T11:28:31;3.17;;;1.33;;
10283;SDS011;5187;52.378;9.018;2022-08-19T11:31:00;1.38;;;1.10;;
10283;SDS011;5187;52.378;9.018;2022-08-19T11:33:29;1.70;;;1.10;;
10283;SDS011;5187;52.378;9.018;2022-08-19T11:35:59;1.40;;;1.20;;
10283;SDS011;5187;52.378;9.018;2022-08-19T11:38:28;2.78;;;1.30;;
10283;SDS011;5187;52.378;9.018;2022-08-19T11:40:57;2.55;;;1.30;;
10283;SDS011;5187;52.378;9.018;2022-08-19T11:43:27;1.63;;;1.15;;
10283;SDS011;5187;52.378;9.018;2022-08-19T11:46:03;1.33;;;1.13;;
10283;SDS011;5187;52.378;9.018;2022-08-19T11:48:33;1.75;;;1.10;;
10283;SDS011;5187;52.378;9.018;2022-08-19T11:51:03;1.23;;;1.00;;
10283;SDS011;5187;52.378;9.018;2022-08-19T11:53:33;1.90;;;1.27;;
10283;SDS011;5187;52.378;9.018;2022-08-19T11:56:06;1.75;;;1.40;;
10283;SDS011;5187;52.378;9.018;2022-08-19T11:58:36;2.00;;;1.40;;
10283;SDS011;5187;52.378;9.018;2022-08-19T12:01:05;1.42;;;1.25;;
10283;SDS011;5187;52.378;9.018;2022-08-19T12:03:34;1.60;;;1.42;;
10283;SDS011;5187;52.378;9.018;2022-08-19T12:06:03;1.30;;;1.20;;
10283;SDS011;5187;52.378;9.018;2022-08-19T12:08:32;1.65;;;1.55;;
10283;SDS011;5187;52.378;9.018;2022-08-19T12:11:00;1.75;;;1.23;;
10283;SDS011;5187;52.378;9.018;2022-08-19T12:13:29;2.50;;;1.30;;
10283;SDS011;5187;52.378;9.018;2022-08-19T12:16:00;2.65;;;1.30;;
10283;SDS011;5187;52.378;9.018;2022-08-19T12:18:29;2.40;;;1.40;;
10283;SDS011;5187;52.378;9.018;2022-08-19T12:20:58;2.33;;;1.38;;
10283;SDS011;5187;52.378;9.018;2022-08-19T12:23:27;2.72;;;1.48;;
10283;SDS011;5187;52.378;9.018;2022-08-19T12:25:56;2.22;;;1.30;;
10283;SDS011;5187;52.378;9.018;2022-08-19T12:28:24;1.70;;;1.27;;
10283;SDS011;5187;52.378;9.018;2022-08-19T12:30:53;1.85;;;1.40;;
10283;SDS011;5187;52.378;9.018;2022-08-19T12:33:25;2.00;;;1.50;;
10283;SDS011;5187;52.378;9.018;2022-08-19T12:35:55;1.50;;;1.40;;
10283;SDS011;5187;52.378;9.018;2022-08-19T12:38:28;1.80;;;1.50;;
10283;SDS011;5187;52.378;9.018;2022-08-19T12:40:56;1.83;;;1.48;;
10283;SDS011;5187;52.378;9.018;2022-08-19T12:43:25;1.95;;;1.33;;
10283;SDS011;5187;52.378;9.018;2022-08-19T12:45:56;1.92;;;1.55;;
10283;SDS011;5187;52.378;9.018;2022-08-19T12:48:27;1.73;;;1.60;;
10283;SDS011;5187;52.378;9.018;2022-08-19T12:50:59;1.70;;;1.40;;
10283;SDS011;5187;52.378;9.018;2022-08-19T12:53:29;3.45;;;1.67;;
10283;SDS011;5187;52.378;9.018;2022-08-19T12:55:59;3.78;;;1.75;;
10283;SDS011;5187;52.378;9.018;2022-08-19T12:58:32;2.25;;;1.70;;
10283;SDS011;5187;52.378;9.018;2022-08-19T13:01:05;2.30;;;1.45;;
10283;SDS011;5187;52.378;9.018;2022-08-19T13:03:35;3.00;;;1.80;;
10283;SDS011;5187;52.378;9.018;2022-08-19T13:06:13;2.45;;;1.60;;
10283;SDS011;5187;52.378;9.018;2022-08-19T13:08:45;2.60;;;1.52;;
10283;SDS011;5187;52.378;9.018;2022-08-19T13:11:15;2.05;;;1.70;;
10283;SDS011;5187;52.378;9.018;2022-08-19T13:13:44;1.73;;;1.63;;
10283;SDS011;5187;52.378;9.018;2022-08-19T13:16:14;3.63;;;1.95;;
10283;SDS011;5187;52.378;9.018;2022-08-19T13:18:44;2.40;;;1.80;;
10283;SDS011;5187;52.378;9.018;2022-08-19T13:21:13;2.22;;;1.90;;
10283;SDS011;5187;52.378;9.018;2022-08-19T13:23:46;3.40;;;1.77;;
10283;SDS011;5187;52.378;9.018;2022-08-19T13:26:14;3.72;;;1.80;;
10283;SDS011;5187;52.378;9.018;2022-08-19T13:28:44;2.05;;;1.80;;
10283;SDS011;5187;52.378;9.018;2022-08-19T13:31:31;2.28;;;1.80;;
10283;SDS011;5187;52.378;9.018;2022-08-19T13:34:19;2.83;;;1.80;;
10283;SDS011;5187;52.378;9.018;2022-08-19T13:36:56;1.75;;;1.65;;
10283;SDS011;5187;52.378;9.018;2022-08-19T13:39:24;2.20;;;1.90;;
10283;SDS011;5187;52.378;9.018;2022-08-19T13:41:53;2.40;;;1.80;;
10283;SDS011;5187;52.378;9.018;2022-08-19T13:44:22;2.85;;;1.90;;
10283;SDS011;5187;52.378;9.018;2022-08-19T13:46:52;4.78;;;2.10;;
10283;SDS011;5187;52.378;9.018;2022-08-19T13:49:22;3.72;;;1.80;;
10283;SDS011;5187;52.378;9.018;2022-08-19T13:51:50;3.72;;;1.70;;
10283;SDS011;5187;52.378;9.018;2022-08-19T13:54:19;2.70;;;2.03;;
10283;SDS011;5187;52.378;9.018;2022-08-19T13:56:48;3.70;;;1.90;;
10283;SDS011;5187;52.378;9.018;2022-08-19T13:59:16;2.90;;;1.83;;
10283;SDS011;5187;52.378;9.018;2022-08-19T14:01:45;2.10;;;1.90;;
10283;SDS011;5187;52.378;9.018;2022-08-19T14:04:13;1.90;;;1.80;;
10283;SDS011;5187;52.378;9.018;2022-08-19T14:06:43;2.08;;;1.70;;
10283;SDS011;5187;52.378;9.018;2022-08-19T14:09:12;1.60;;;1.50;;
10283;SDS011;5187;52.378;9.018;2022-08-19T14:11:40;2.42;;;1.60;;
10283;SDS011;5187;52.378;9.018;2022-08-19T14:14:09;1.70;;;1.60;;
10283;SDS011;5187;52.378;9.018;2022-08-19T14:16:41;2.67;;;1.60;;
10283;SDS011;5187;52.378;9.018;2022-08-19T14:19:10;2.20;;;1.67;;
10283;SDS011;5187;52.378;9.018;2022-08-19T14:21:38;1.67;;;1.58;;
10283;SDS011;5187;52.378;9.018;2022-08-19T14:24:08;1.63;;;1.52;;
10283;SDS011;5187;52.378;9.018;2022-08-19T14:26:37;1.33;;;1.27;;
10283;SDS011;5187;52.378;9.018;2022-08-19T14:29:05;1.60;;;1.50;;
10283;SDS011;5187;52.378;9.018;2022-08-19T14:31:34;1.73;;;1.63;;
10283;SDS011;5187;52.378;9.018;2022-08-19T14:34:03;3.33;;;1.80;;
10283;SDS011;5187;52.378;9.018;2022-08-19T14:36:31;1.70;;;1.50;;
10283;SDS011;5187;52.378;9.018;2022-08-19T14:39:04;1.67;;;1.58;;
10283;SDS011;5187;52.378;9.018;2022-08-19T14:41:34;1.70;;;1.60;;
10283;SDS011;5187;52.378;9.018;2022-08-19T14:44:03;2.40;;;1.60;;
10283;SDS011;5187;52.378;9.018;2022-08-19T14:46:31;2.13;;;1.50;;
10283;SDS011;5187;52.378;9.018;2022-08-19T14:49:00;1.65;;;1.55;;
10283;SDS011;5187;52.378;9.018;2022-08-19T14:51:34;2.53;;;1.50;;
10283;SDS011;5187;52.378;9.018;2022-08-19T14:54:03;1.58;;;1.48;;
10283;SDS011;5187;52.378;9.018;2022-08-19T14:56:32;1.60;;;1.50;;
10283;SDS011;5187;52.378;9.018;2022-08-19T14:59:03;3.53;;;1.60;;
10283;SDS011;5187;52.378;9.018;2022-08-19T15:01:33;1.70;;;1.60;;
10283;SDS011;5187;52.378;9.018;2022-08-19T15:04:01;1.70;;;1.60;;
10283;SDS011;5187;52.378;9.018;2022-08-19T15:06:30;1.80;;;1.60;;
10283;SDS011;5187;52.378;9.018;2022-08-19T15:08:59;1.98;;;1.70;;
10283;SDS011;5187;52.378;9.018;2022-08-19T15:11:29;1.83;;;1.55;;
10283;SDS011;5187;52.378;9.018;2022-08-19T15:13:59;2.03;;;1.60;;